sensor_id;sensor_type;location;lat;lon;timestamp;temperature;humidity
24250;DHT22;12379;49.820;8.648;2022-11-20T00:02:20;3.00;99.90
24250;DHT22;12379;49.820;8.648;2022-11-20T00:04:46;3.00;99.90
24250;DHT22;12379;49.820;8.648;2022-11-20T00:07:11;3.00;99.90
24250;DHT22;12379;49.820;8.648;2022-11-20T00:09:37;3.00;99.90
24250;DHT22;12379;49.820;8.648;2022-11-20T00:12:03;3.00;99.90
24250;DHT22;12379;49.820;8.648;2022-11-20T00:14:28;2.90;99.90
24250;DHT22;12379;49.820;8.648;2022-11-20T00:19:21;2.80;99.90
24250;DHT22;12379;49.820;8.648;2022-11-20T00:21:47;2.80;99.90
24250;DHT22;12379;49.820;8.648;2022-11-20T00:24:13;2.80;99.90
24250;DHT22;12379;49.820;8.648;2022-11-20T00:26:38;2.80;99.90
24250;DHT22;12379;49.820;8.648;2022-11-20T00:29:04;2.80;99.90
24250;DHT22;12379;49.820;8.648;2022-11-20T00:31:30;2.80;99.90
24250;DHT22;12379;49.820;8.648;2022-11-20T00:33:56;2.80;99.90
24250;DHT22;12379;49.820;8.648;2022-11-20T00:36:24;2.80;99.90
24250;DHT22;12379;49.820;8.648;2022-11-20T00:38:55;2.80;99.90
24250;DHT22;12379;49.820;8.648;2022-11-20T00:41:22;2.80;99.90
24250;DHT22;12379;49.820;8.648;2022-11-20T00:43:48;2.80;99.90
24250;DHT22;12379;49.820;8.648;2022-11-20T00:46:18;2.90;99.90
24250;DHT22;12379;49.820;8.648;2022-11-20T00:48:46;2.90;99.90
24250;DHT22;12379;49.820;8.648;2022-11-20T00:51:17;2.90;99.90
24250;DHT22;12379;49.820;8.648;2022-11-20T00:53:43;2.90;99.90
24250;DHT22;12379;49.820;8.648;2022-11-20T00:56:17;2.80;99.90
24250;DHT22;12379;49.820;8.648;2022-11-20T00:58:45;2.80;99.90
24250;DHT22;12379;49.820;8.648;2022-11-20T01:01:19;2.90;99.90
24250;DHT22;12379;49.820;8.648;2022-11-20T01:03:47;2.90;99.90
24250;DHT22;12379;49.820;8.648;2022-11-20T01:06:19;3.00;99.90
24250;DHT22;12379;49.820;8.648;2022-11-20T01:08:45;2.90;99.90
24250;DHT22;12379;49.820;8.648;2022-11-20T01:11:13;2.90;99.90
24250;DHT22;12379;49.820;8.648;2022-11-20T01:13:40;2.90;99.90
24250;DHT22;12379;49.820;8.648;2022-11-20T01:16:09;2.90;99.90
24250;DHT22;12379;49.820;8.648;2022-11-20T01:18:35;2.90;99.90
24250;DHT22;12379;49.820;8.648;2022-11-20T01:21:13;3.00;99.90
24250;DHT22;12379;49.820;8.648;2022-11-20T01:23:40;3.00;99.90
24250;DHT22;12379;49.820;8.648;2022-11-20T01:26:16;3.00;99.90
24250;DHT22;12379;49.820;8.648;2022-11-20T01:28:42;3.00;99.90
24250;DHT22;12379;49.820;8.648;2022-11-20T01:31:16;3.00;99.90
24250;DHT22;12379;49.820;8.648;2022-11-20T01:33:43;3.10;99.90
24250;DHT22;12379;49.820;8.648;2022-11-20T01:36:10;3.10;99.90
24250;DHT22;12379;49.820;8.648;2022-11-20T01:38:36;3.00;99.90
24250;DHT22;12379;49.820;8.648;2022-11-20T01:41:02;3.00;99.90
24250;DHT22;12379;49.820;8.648;2022-11-20T01:43:28;3.00;99.90
24250;DHT22;12379;49.820;8.648;2022-11-20T01:46:13;3.10;99.90
24250;DHT22;12379;49.820;8.648;2022-11-20T01:51:33;3.10;99.90
24250;DHT22;12379;49.820;8.648;2022-11-20T01:54:04;3.20;99.90
24250;DHT22;12379;49.820;8.648;2022-11-20T01:56:33;3.20;99.90
24250;DHT22;12379;49.820;8.648;2022-11-20T01:59:04;3.20;99.90
24250;DHT22;12379;49.820;8.648;2022-11-20T02:01:30;3.10;99.90
24250;DHT22;12379;49.820;8.648;2022-11-20T02:03:56;3.10;99.90
24250;DHT22;12379;49.820;8.648;2022-11-20T02:06:26;3.10;99.90
24250;DHT22;12379;49.820;8.648;2022-11-20T02:08:54;3.20;99.90
24250;DHT22;12379;49.820;8.648;2022-11-20T02:11:20;3.30;99.90
24250;DHT22;12379;49.820;8.648;2022-11-20T02:13:47;3.30;99.90
24250;DHT22;12379;49.820;8.648;2022-11-20T02:16:26;3.30;99.90
24250;DHT22;12379;49.820;8.648;2022-11-20T02:18:55;3.30;99.90
24250;DHT22;12379;49.820;8.648;2022-11-20T02:21:35;3.10;99.90
24250;DHT22;12379;49.820;8.648;2022-11-20T02:24:05;3.10;99.90
24250;DHT22;12379;49.820;8.648;2022-11-20T02:26:54;3.10;99.90
24250;DHT22;12379;49.820;8.648;2022-11-20T02:32:26;2.90;99.90
24250;DHT22;12379;49.820;8.648;2022-11-20T02:34:52;3.00;99.90
24250;DHT22;12379;49.820;8.648;2022-11-20T02:37:19;3.10;99.90
24250;DHT22;12379;49.820;8.648;2022-11-20T02:39:46;3.10;99.90
24250;DHT22;12379;49.820;8.648;2022-11-20T02:42:12;3.10;99.90
24250;DHT22;12379;49.820;8.648;2022-11-20T02:44:39;3.00;99.90
24250;DHT22;12379;49.820;8.648;2022-11-20T02:47:04;3.00;99.90
24250;DHT22;12379;49.820;8.648;2022-11-20T02:49:30;3.00;99.90
24250;DHT22;12379;49.820;8.648;2022-11-20T02:51:55;3.00;99.90
24250;DHT22;12379;49.820;8.648;2022-11-20T02:54:21;2.90;99.90
24250;DHT22;12379;49.820;8.648;2022-11-20T02:56:46;2.90;99.90
24250;DHT22;12379;49.820;8.648;2022-11-20T02:59:12;2.90;99.90
24250;DHT22;12379;49.820;8.648;2022-11-20T03:01:40;2.90;99.90
24250;DHT22;12379;49.820;8.648;2022-11-20T03:04:06;3.00;99.90
24250;DHT22;12379;49.820;8.648;2022-11-20T03:06:32;3.00;99.90
24250;DHT22;12379;49.820;8.648;2022-11-20T03:08:57;2.90;99.90
24250;DHT22;12379;49.820;8.648;2022-11-20T03:11:26;2.80;99.90
24250;DHT22;12379;49.820;8.648;2022-11-20T03:13:52;2.90;99.90
24250;DHT22;12379;49.820;8.648;2022-11-20T03:16:19;2.90;99.90
24250;DHT22;12379;49.820;8.648;2022-11-20T03:18:45;2.90;99.90
24250;DHT22;12379;49.820;8.648;2022-11-20T03:21:13;2.90;99.90
24250;DHT22;12379;49.820;8.648;2022-11-20T03:23:40;2.80;99.90
24250;DHT22;12379;49.820;8.648;2022-11-20T03:26:14;2.80;99.90
24250;DHT22;12379;49.820;8.648;2022-11-20T03:28:40;2.90;99.90
24250;DHT22;12379;49.820;8.648;2022-11-20T03:31:08;2.80;99.90
24250;DHT22;12379;49.820;8.648;2022-11-20T03:33:34;2.90;99.90
24250;DHT22;12379;49.820;8.648;2022-11-20T03:36:06;2.90;99.90
24250;DHT22;12379;49.820;8.648;2022-11-20T03:38:32;2.90;99.90
24250;DHT22;12379;49.820;8.648;2022-11-20T03:41:00;2.80;99.90
24250;DHT22;12379;49.820;8.648;2022-11-20T03:43:26;2.80;99.90
24250;DHT22;12379;49.820;8.648;2022-11-20T03:45:52;2.90;99.90
24250;DHT22;12379;49.820;8.648;2022-11-20T03:48:17;2.90;99.90
24250;DHT22;12379;49.820;8.648;2022-11-20T03:50:43;2.90;99.90
24250;DHT22;12379;49.820;8.648;2022-11-20T03:53:08;3.00;99.90
24250;DHT22;12379;49.820;8.648;2022-11-20T03:55:34;3.00;99.90
24250;DHT22;12379;49.820;8.648;2022-11-20T03:57:59;3.00;99.90
24250;DHT22;12379;49.820;8.648;2022-11-20T04:00:25;2.90;99.90
24250;DHT22;12379;49.820;8.648;2022-11-20T04:02:50;2.90;99.90
24250;DHT22;12379;49.820;8.648;2022-11-20T04:05:16;3.00;99.90
24250;DHT22;12379;49.820;8.648;2022-11-20T04:07:41;3.00;99.90
24250;DHT22;12379;49.820;8.648;2022-11-20T04:10:07;3.00;99.90
24250;DHT22;12379;49.820;8.648;2022-11-20T04:12:33;3.00;99.90
24250;DHT22;12379;49.820;8.648;2022-11-20T04:14:59;3.00;99.90
24250;DHT22;12379;49.820;8.648;2022-11-20T04:17:24;3.00;99.90
24250;DHT22;12379;49.820;8.648;2022-11-20T04:19:50;3.00;99.90
24250;DHT22;12379;49.820;8.648;2022-11-20T04:22:15;2.90;99.90
24250;DHT22;12379;49.820;8.648;2022-11-20T04:24:41;2.90;99.90
24250;DHT22;12379;49.820;8.648;2022-11-20T04:27:06;3.00;99.90
24250;DHT22;12379;49.820;8.648;2022-11-20T04:29:32;3.00;99.90
24250;DHT22;12379;49.820;8.648;2022-11-20T04:31:57;3.00;99.90
24250;DHT22;12379;49.820;8.648;2022-11-20T04:34:23;3.10;99.90
24250;DHT22;12379;49.820;8.648;2022-11-20T04:36:49;3.20;99.90
24250;DHT22;12379;49.820;8.648;2022-11-20T04:39:14;3.00;99.90
24250;DHT22;12379;49.820;8.648;2022-11-20T04:41:40;3.10;99.90
24250;DHT22;12379;49.820;8.648;2022-11-20T04:44:06;3.10;99.90
24250;DHT22;12379;49.820;8.648;2022-11-20T04:46:35;3.10;99.90
24250;DHT22;12379;49.820;8.648;2022-11-20T04:49:00;3.10;99.90
24250;DHT22;12379;49.820;8.648;2022-11-20T04:51:27;3.00;99.90
24250;DHT22;12379;49.820;8.648;2022-11-20T04:53:53;3.00;99.90
24250;DHT22;12379;49.820;8.648;2022-11-20T04:56:19;3.10;99.90
24250;DHT22;12379;49.820;8.648;2022-11-20T04:58:44;3.10;99.90
24250;DHT22;12379;49.820;8.648;2022-11-20T05:01:21;3.10;99.90
24250;DHT22;12379;49.820;8.648;2022-11-20T05:03:47;3.00;99.90
24250;DHT22;12379;49.820;8.648;2022-11-20T05:06:15;3.00;99.90
24250;DHT22;12379;49.820;8.648;2022-11-20T05:08:41;3.00;99.90
24250;DHT22;12379;49.820;8.648;2022-11-20T05:11:10;3.00;99.90
24250;DHT22;12379;49.820;8.648;2022-11-20T05:13:36;3.00;99.90
24250;DHT22;12379;49.820;8.648;2022-11-20T05:16:04;3.00;99.90
24250;DHT22;12379;49.820;8.648;2022-11-20T05:18:29;3.00;99.90
24250;DHT22;12379;49.820;8.648;2022-11-20T05:20:56;3.00;99.90
24250;DHT22;12379;49.820;8.648;2022-11-20T05:23:22;2.90;99.90
24250;DHT22;12379;49.820;8.648;2022-11-20T05:25:51;3.00;99.90
24250;DHT22;12379;49.820;8.648;2022-11-20T05:28:16;3.00;99.90
24250;DHT22;12379;49.820;8.648;2022-11-20T05:30:42;3.00;99.90
24250;DHT22;12379;49.820;8.648;2022-11-20T05:33:08;3.00;99.90
24250;DHT22;12379;49.820;8.648;2022-11-20T05:35:33;3.00;99.90
24250;DHT22;12379;49.820;8.648;2022-11-20T05:37:59;3.00;99.90
24250;DHT22;12379;49.820;8.648;2022-11-20T05:40:24;3.00;99.90
24250;DHT22;12379;49.820;8.648;2022-11-20T05:42:50;3.00;99.90
24250;DHT22;12379;49.820;8.648;2022-11-20T05:45:15;3.00;99.90
24250;DHT22;12379;49.820;8.648;2022-11-20T05:47:41;3.10;99.90
24250;DHT22;12379;49.820;8.648;2022-11-20T05:50:06;3.00;99.90
24250;DHT22;12379;49.820;8.648;2022-11-20T05:52:32;3.00;99.90
24250;DHT22;12379;49.820;8.648;2022-11-20T05:54:58;3.00;99.90
24250;DHT22;12379;49.820;8.648;2022-11-20T05:57:24;3.00;99.90
24250;DHT22;12379;49.820;8.648;2022-11-20T05:59:50;2.90;99.90
24250;DHT22;12379;49.820;8.648;2022-11-20T06:02:15;3.00;99.90
24250;DHT22;12379;49.820;8.648;2022-11-20T06:04:41;3.00;99.90
24250;DHT22;12379;49.820;8.648;2022-11-20T06:07:06;3.00;99.90
24250;DHT22;12379;49.820;8.648;2022-11-20T06:09:32;3.00;99.90
24250;DHT22;12379;49.820;8.648;2022-11-20T06:11:58;3.10;99.90
24250;DHT22;12379;49.820;8.648;2022-11-20T06:14:23;3.00;99.90
24250;DHT22;12379;49.820;8.648;2022-11-20T06:16:49;3.00;99.90
24250;DHT22;12379;49.820;8.648;2022-11-20T06:19:14;3.00;99.90
24250;DHT22;12379;49.820;8.648;2022-11-20T06:21:40;3.00;99.90
24250;DHT22;12379;49.820;8.648;2022-11-20T06:24:06;3.10;99.90
24250;DHT22;12379;49.820;8.648;2022-11-20T06:26:33;3.10;99.90
24250;DHT22;12379;49.820;8.648;2022-11-20T06:28:59;3.10;99.90
24250;DHT22;12379;49.820;8.648;2022-11-20T06:31:25;3.10;99.90
24250;DHT22;12379;49.820;8.648;2022-11-20T06:33:52;3.10;99.90
24250;DHT22;12379;49.820;8.648;2022-11-20T06:36:20;3.00;99.90
24250;DHT22;12379;49.820;8.648;2022-11-20T06:38:46;2.90;99.90
24250;DHT22;12379;49.820;8.648;2022-11-20T06:41:14;3.00;99.90
24250;DHT22;12379;49.820;8.648;2022-11-20T06:43:41;3.00;99.90
24250;DHT22;12379;49.820;8.648;2022-11-20T06:46:06;3.10;99.90
24250;DHT22;12379;49.820;8.648;2022-11-20T06:48:32;3.10;99.90
24250;DHT22;12379;49.820;8.648;2022-11-20T06:50:58;3.10;99.90
24250;DHT22;12379;49.820;8.648;2022-11-20T06:53:24;3.10;99.90
24250;DHT22;12379;49.820;8.648;2022-11-20T06:55:51;3.10;99.90
24250;DHT22;12379;49.820;8.648;2022-11-20T06:58:17;3.20;99.90
24250;DHT22;12379;49.820;8.648;2022-11-20T07:00:43;3.20;99.90
24250;DHT22;12379;49.820;8.648;2022-11-20T07:03:11;3.30;99.90
24250;DHT22;12379;49.820;8.648;2022-11-20T07:05:37;3.30;99.90
24250;DHT22;12379;49.820;8.648;2022-11-20T07:08:04;3.30;99.90
24250;DHT22;12379;49.820;8.648;2022-11-20T07:10:30;3.30;99.90
24250;DHT22;12379;49.820;8.648;2022-11-20T07:12:55;3.30;99.90
24250;DHT22;12379;49.820;8.648;2022-11-20T07:15:23;3.20;99.90
24250;DHT22;12379;49.820;8.648;2022-11-20T07:17:48;3.20;99.90
24250;DHT22;12379;49.820;8.648;2022-11-20T07:20:15;3.20;99.90
24250;DHT22;12379;49.820;8.648;2022-11-20T07:22:40;3.10;99.90
24250;DHT22;12379;49.820;8.648;2022-11-20T07:25:07;3.20;99.90
24250;DHT22;12379;49.820;8.648;2022-11-20T07:27:33;3.20;99.90
24250;DHT22;12379;49.820;8.648;2022-11-20T07:29:59;3.10;99.90
24250;DHT22;12379;49.820;8.648;2022-11-20T07:32:25;3.10;99.90
24250;DHT22;12379;49.820;8.648;2022-11-20T07:34:50;3.20;99.90
24250;DHT22;12379;49.820;8.648;2022-11-20T07:37:16;3.20;99.90
24250;DHT22;12379;49.820;8.648;2022-11-20T07:39:42;3.20;99.90
24250;DHT22;12379;49.820;8.648;2022-11-20T07:42:07;3.20;99.90
24250;DHT22;12379;49.820;8.648;2022-11-20T07:44:33;3.20;99.90
24250;DHT22;12379;49.820;8.648;2022-11-20T07:46:59;3.30;99.90
24250;DHT22;12379;49.820;8.648;2022-11-20T07:49:25;3.30;99.90
24250;DHT22;12379;49.820;8.648;2022-11-20T07:51:51;3.20;99.90
24250;DHT22;12379;49.820;8.648;2022-11-20T07:54:18;3.20;99.90
24250;DHT22;12379;49.820;8.648;2022-11-20T07:56:44;3.20;99.90
24250;DHT22;12379;49.820;8.648;2022-11-20T07:59:10;3.30;99.90
24250;DHT22;12379;49.820;8.648;2022-11-20T08:01:37;3.20;99.90
24250;DHT22;12379;49.820;8.648;2022-11-20T08:04:03;3.20;99.90
24250;DHT22;12379;49.820;8.648;2022-11-20T08:06:28;3.20;99.90
24250;DHT22;12379;49.820;8.648;2022-11-20T08:08:54;3.10;99.90
24250;DHT22;12379;49.820;8.648;2022-11-20T08:11:19;3.10;99.90
24250;DHT22;12379;49.820;8.648;2022-11-20T08:14:03;3.20;99.90
24250;DHT22;12379;49.820;8.648;2022-11-20T08:16:48;3.40;99.90
24250;DHT22;12379;49.820;8.648;2022-11-20T08:19:15;3.40;99.90
24250;DHT22;12379;49.820;8.648;2022-11-20T08:21:41;3.40;99.90
24250;DHT22;12379;49.820;8.648;2022-11-20T08:24:08;3.30;99.90
24250;DHT22;12379;49.820;8.648;2022-11-20T08:26:34;3.40;99.90
24250;DHT22;12379;49.820;8.648;2022-11-20T08:29:00;3.40;99.90
24250;DHT22;12379;49.820;8.648;2022-11-20T08:31:27;3.50;99.90
24250;DHT22;12379;49.820;8.648;2022-11-20T08:33:53;3.50;99.90
24250;DHT22;12379;49.820;8.648;2022-11-20T08:36:19;3.40;99.90
24250;DHT22;12379;49.820;8.648;2022-11-20T08:38:53;3.60;99.90
24250;DHT22;12379;49.820;8.648;2022-11-20T08:41:19;3.60;99.90
24250;DHT22;12379;49.820;8.648;2022-11-20T08:44:01;3.80;99.90
24250;DHT22;12379;49.820;8.648;2022-11-20T08:46:31;3.90;99.90
24250;DHT22;12379;49.820;8.648;2022-11-20T08:48:58;4.10;99.90
24250;DHT22;12379;49.820;8.648;2022-11-20T08:51:24;4.20;99.90
24250;DHT22;12379;49.820;8.648;2022-11-20T08:53:49;4.20;99.90
24250;DHT22;12379;49.820;8.648;2022-11-20T08:56:16;4.50;99.90
24250;DHT22;12379;49.820;8.648;2022-11-20T08:58:42;4.90;99.90
24250;DHT22;12379;49.820;8.648;2022-11-20T09:01:07;5.10;99.90
24250;DHT22;12379;49.820;8.648;2022-11-20T09:03:33;5.00;99.90
24250;DHT22;12379;49.820;8.648;2022-11-20T09:06:00;4.80;99.90
24250;DHT22;12379;49.820;8.648;2022-11-20T09:08:26;4.80;99.90
24250;DHT22;12379;49.820;8.648;2022-11-20T09:10:53;4.80;99.90
24250;DHT22;12379;49.820;8.648;2022-11-20T09:13:20;4.90;99.90
24250;DHT22;12379;49.820;8.648;2022-11-20T09:15:45;4.70;99.90
24250;DHT22;12379;49.820;8.648;2022-11-20T09:18:11;4.60;99.90
24250;DHT22;12379;49.820;8.648;2022-11-20T09:20:37;4.40;99.90
24250;DHT22;12379;49.820;8.648;2022-11-20T09:23:02;4.40;99.90
24250;DHT22;12379;49.820;8.648;2022-11-20T09:25:28;4.40;99.90
24250;DHT22;12379;49.820;8.648;2022-11-20T09:27:57;4.30;99.90
24250;DHT22;12379;49.820;8.648;2022-11-20T09:30:23;4.40;99.90
24250;DHT22;12379;49.820;8.648;2022-11-20T09:32:49;4.40;99.90
24250;DHT22;12379;49.820;8.648;2022-11-20T09:35:15;4.40;99.90
24250;DHT22;12379;49.820;8.648;2022-11-20T09:37:40;4.40;99.90
24250;DHT22;12379;49.820;8.648;2022-11-20T09:40:09;4.40;99.90
24250;DHT22;12379;49.820;8.648;2022-11-20T09:42:54;4.40;99.90
24250;DHT22;12379;49.820;8.648;2022-11-20T09:50:43;4.50;99.90
24250;DHT22;12379;49.820;8.648;2022-11-20T09:56:01;4.40;99.90
24250;DHT22;12379;49.820;8.648;2022-11-20T09:58:40;4.40;99.90
24250;DHT22;12379;49.820;8.648;2022-11-20T10:01:19;4.30;99.90
24250;DHT22;12379;49.820;8.648;2022-11-20T10:04:00;4.20;99.90
24250;DHT22;12379;49.820;8.648;2022-11-20T10:06:37;4.30;99.90
24250;DHT22;12379;49.820;8.648;2022-11-20T10:17:53;4.50;99.90
24250;DHT22;12379;49.820;8.648;2022-11-20T10:20:46;4.50;99.90
24250;DHT22;12379;49.820;8.648;2022-11-20T10:23:37;4.50;99.90
24250;DHT22;12379;49.820;8.648;2022-11-20T10:29:14;4.50;99.90
24250;DHT22;12379;49.820;8.648;2022-11-20T10:32:09;4.50;99.90
24250;DHT22;12379;49.820;8.648;2022-11-20T10:34:51;4.60;99.90
24250;DHT22;12379;49.820;8.648;2022-11-20T10:37:23;4.50;99.90
24250;DHT22;12379;49.820;8.648;2022-11-20T10:42:44;4.50;99.90
24250;DHT22;12379;49.820;8.648;2022-11-20T10:58:52;4.70;99.90
24250;DHT22;12379;49.820;8.648;2022-11-20T11:01:21;4.70;99.90
24250;DHT22;12379;49.820;8.648;2022-11-20T11:03:52;4.70;99.90
24250;DHT22;12379;49.820;8.648;2022-11-20T11:06:38;4.70;99.90
24250;DHT22;12379;49.820;8.648;2022-11-20T11:09:21;4.70;99.90
24250;DHT22;12379;49.820;8.648;2022-11-20T11:11:50;4.80;99.90
24250;DHT22;12379;49.820;8.648;2022-11-20T11:14:19;4.70;99.90
24250;DHT22;12379;49.820;8.648;2022-11-20T11:16:51;4.80;99.90
24250;DHT22;12379;49.820;8.648;2022-11-20T11:19:17;4.70;99.90
24250;DHT22;12379;49.820;8.648;2022-11-20T11:21:54;4.90;99.90
24250;DHT22;12379;49.820;8.648;2022-11-20T11:24:25;4.90;99.90
24250;DHT22;12379;49.820;8.648;2022-11-20T11:26:57;4.80;99.90
24250;DHT22;12379;49.820;8.648;2022-11-20T11:29:23;4.90;99.90
24250;DHT22;12379;49.820;8.648;2022-11-20T11:32:03;4.90;99.90
24250;DHT22;12379;49.820;8.648;2022-11-20T11:34:29;4.90;99.90
24250;DHT22;12379;49.820;8.648;2022-11-20T11:36:59;4.90;99.90
24250;DHT22;12379;49.820;8.648;2022-11-20T11:39:27;5.00;99.90
24250;DHT22;12379;49.820;8.648;2022-11-20T11:41:53;5.00;99.90
24250;DHT22;12379;49.820;8.648;2022-11-20T11:44:26;5.00;99.90
24250;DHT22;12379;49.820;8.648;2022-11-20T11:47:22;5.00;99.90
24250;DHT22;12379;49.820;8.648;2022-11-20T11:49:49;5.10;99.90
24250;DHT22;12379;49.820;8.648;2022-11-20T11:52:20;5.20;99.90
24250;DHT22;12379;49.820;8.648;2022-11-20T11:54:53;5.30;99.90
24250;DHT22;12379;49.820;8.648;2022-11-20T11:57:29;5.30;99.90
24250;DHT22;12379;49.820;8.648;2022-11-20T12:00:16;5.10;99.90
24250;DHT22;12379;49.820;8.648;2022-11-20T12:05:42;5.20;99.90
24250;DHT22;12379;49.820;8.648;2022-11-20T12:08:30;5.30;99.90
24250;DHT22;12379;49.820;8.648;2022-11-20T12:13:54;5.30;99.90
24250;DHT22;12379;49.820;8.648;2022-11-20T12:16:21;5.30;99.90
24250;DHT22;12379;49.820;8.648;2022-11-20T12:18:51;5.40;99.90
24250;DHT22;12379;49.820;8.648;2022-11-20T12:21:23;5.50;99.90
24250;DHT22;12379;49.820;8.648;2022-11-20T12:34:52;5.50;99.90
24250;DHT22;12379;49.820;8.648;2022-11-20T12:43:19;5.70;99.90
24250;DHT22;12379;49.820;8.648;2022-11-20T12:46:13;5.90;99.90
24250;DHT22;12379;49.820;8.648;2022-11-20T12:48:49;5.80;99.90
24250;DHT22;12379;49.820;8.648;2022-11-20T12:57:09;6.00;99.90
24250;DHT22;12379;49.820;8.648;2022-11-20T13:05:43;6.10;99.90
24250;DHT22;12379;49.820;8.648;2022-11-20T13:08:23;6.30;99.90
24250;DHT22;12379;49.820;8.648;2022-11-20T13:16:17;6.50;99.90
24250;DHT22;12379;49.820;8.648;2022-11-20T13:18:45;6.50;99.90
24250;DHT22;12379;49.820;8.648;2022-11-20T13:21:19;6.60;99.90
24250;DHT22;12379;49.820;8.648;2022-11-20T13:23:45;6.50;99.90
24250;DHT22;12379;49.820;8.648;2022-11-20T13:26:22;6.60;99.90
24250;DHT22;12379;49.820;8.648;2022-11-20T13:29:02;6.70;99.90
24250;DHT22;12379;49.820;8.648;2022-11-20T13:31:31;6.80;99.90
24250;DHT22;12379;49.820;8.648;2022-11-20T13:33:58;6.80;99.90
24250;DHT22;12379;49.820;8.648;2022-11-20T13:36:27;6.80;99.90
24250;DHT22;12379;49.820;8.648;2022-11-20T13:38:54;6.80;99.90
24250;DHT22;12379;49.820;8.648;2022-11-20T13:41:29;6.90;99.90
24250;DHT22;12379;49.820;8.648;2022-11-20T13:47:03;6.90;99.90
24250;DHT22;12379;49.820;8.648;2022-11-20T13:49:33;6.80;99.90
24250;DHT22;12379;49.820;8.648;2022-11-20T13:57:41;6.80;99.90
24250;DHT22;12379;49.820;8.648;2022-11-20T14:00:15;6.90;99.90
24250;DHT22;12379;49.820;8.648;2022-11-20T14:02:41;6.90;99.90
24250;DHT22;12379;49.820;8.648;2022-11-20T14:05:22;6.90;99.90
24250;DHT22;12379;49.820;8.648;2022-11-20T14:07:49;6.90;99.90
24250;DHT22;12379;49.820;8.648;2022-11-20T14:10:33;6.90;99.90
24250;DHT22;12379;49.820;8.648;2022-11-20T14:13:09;6.90;99.90
24250;DHT22;12379;49.820;8.648;2022-11-20T14:15:35;6.90;99.90
24250;DHT22;12379;49.820;8.648;2022-11-20T14:18:12;6.80;99.90
24250;DHT22;12379;49.820;8.648;2022-11-20T14:20:38;6.80;99.90
24250;DHT22;12379;49.820;8.648;2022-11-20T14:23:04;6.80;99.90
24250;DHT22;12379;49.820;8.648;2022-11-20T14:25:31;6.90;99.90
24250;DHT22;12379;49.820;8.648;2022-11-20T14:27:59;6.80;99.90
24250;DHT22;12379;49.820;8.648;2022-11-20T14:30:28;6.90;99.90
24250;DHT22;12379;49.820;8.648;2022-11-20T14:32:59;6.80;99.90
24250;DHT22;12379;49.820;8.648;2022-11-20T14:35:29;6.90;99.90
24250;DHT22;12379;49.820;8.648;2022-11-20T14:37:56;6.90;99.90
24250;DHT22;12379;49.820;8.648;2022-11-20T14:40:28;6.90;99.90
24250;DHT22;12379;49.820;8.648;2022-11-20T14:42:56;6.90;99.90
24250;DHT22;12379;49.820;8.648;2022-11-20T14:45:23;6.90;99.90
24250;DHT22;12379;49.820;8.648;2022-11-20T14:47:51;6.80;99.90
24250;DHT22;12379;49.820;8.648;2022-11-20T14:50:26;6.90;99.90
24250;DHT22;12379;49.820;8.648;2022-11-20T14:52:53;6.90;99.90
24250;DHT22;12379;49.820;8.648;2022-11-20T14:58:19;6.80;99.90
24250;DHT22;12379;49.820;8.648;2022-11-20T15:00:54;6.80;99.90
24250;DHT22;12379;49.820;8.648;2022-11-20T15:03:20;6.70;99.90
24250;DHT22;12379;49.820;8.648;2022-11-20T15:05:49;6.70;99.90
24250;DHT22;12379;49.820;8.648;2022-11-20T15:08:16;6.70;99.90
24250;DHT22;12379;49.820;8.648;2022-11-20T15:10:49;6.70;99.90
24250;DHT22;12379;49.820;8.648;2022-11-20T15:13:29;6.80;99.90
24250;DHT22;12379;49.820;8.648;2022-11-20T15:15:57;6.70;99.90
24250;DHT22;12379;49.820;8.648;2022-11-20T15:18:38;6.70;99.90
24250;DHT22;12379;49.820;8.648;2022-11-20T15:21:13;6.70;99.90
24250;DHT22;12379;49.820;8.648;2022-11-20T15:23:39;6.70;99.90
24250;DHT22;12379;49.820;8.648;2022-11-20T15:26:05;6.70;99.90
24250;DHT22;12379;49.820;8.648;2022-11-20T15:28:34;6.70;99.90
24250;DHT22;12379;49.820;8.648;2022-11-20T15:31:00;6.70;99.90
24250;DHT22;12379;49.820;8.648;2022-11-20T15:33:27;6.70;99.90
24250;DHT22;12379;49.820;8.648;2022-11-20T15:35:53;6.70;99.90
24250;DHT22;12379;49.820;8.648;2022-11-20T15:38:18;6.80;99.90
24250;DHT22;12379;49.820;8.648;2022-11-20T15:40:44;6.80;99.90
24250;DHT22;12379;49.820;8.648;2022-11-20T15:43:09;6.80;99.90
24250;DHT22;12379;49.820;8.648;2022-11-20T15:45:41;6.90;99.90
24250;DHT22;12379;49.820;8.648;2022-11-20T15:48:25;6.90;99.90
24250;DHT22;12379;49.820;8.648;2022-11-20T15:51:07;6.90;99.90
24250;DHT22;12379;49.820;8.648;2022-11-20T15:53:41;6.90;99.90
24250;DHT22;12379;49.820;8.648;2022-11-20T15:56:11;6.90;99.90
24250;DHT22;12379;49.820;8.648;2022-11-20T15:58:37;6.90;99.90
24250;DHT22;12379;49.820;8.648;2022-11-20T16:01:03;6.90;99.90
24250;DHT22;12379;49.820;8.648;2022-11-20T16:03:29;6.90;99.90
24250;DHT22;12379;49.820;8.648;2022-11-20T16:05:55;6.90;99.90
24250;DHT22;12379;49.820;8.648;2022-11-20T16:08:20;6.90;99.90
24250;DHT22;12379;49.820;8.648;2022-11-20T16:10:46;6.80;99.90
24250;DHT22;12379;49.820;8.648;2022-11-20T16:13:17;6.80;99.90
24250;DHT22;12379;49.820;8.648;2022-11-20T16:16:23;6.80;99.90
24250;DHT22;12379;49.820;8.648;2022-11-20T16:18:51;6.80;99.90
24250;DHT22;12379;49.820;8.648;2022-11-20T16:21:17;6.80;99.90
24250;DHT22;12379;49.820;8.648;2022-11-20T16:23:42;6.80;99.90
24250;DHT22;12379;49.820;8.648;2022-11-20T16:26:13;6.80;99.90
24250;DHT22;12379;49.820;8.648;2022-11-20T16:28:40;6.70;99.90
24250;DHT22;12379;49.820;8.648;2022-11-20T16:31:14;6.80;99.90
24250;DHT22;12379;49.820;8.648;2022-11-20T16:33:40;6.80;99.90
24250;DHT22;12379;49.820;8.648;2022-11-20T16:36:13;6.90;99.90
24250;DHT22;12379;49.820;8.648;2022-11-20T16:38:40;7.00;99.90
24250;DHT22;12379;49.820;8.648;2022-11-20T16:41:07;7.00;99.90
24250;DHT22;12379;49.820;8.648;2022-11-20T16:43:45;7.00;99.90
24250;DHT22;12379;49.820;8.648;2022-11-20T16:46:12;7.00;99.90
24250;DHT22;12379;49.820;8.648;2022-11-20T16:48:39;7.00;99.90
24250;DHT22;12379;49.820;8.648;2022-11-20T16:51:08;7.10;99.90
24250;DHT22;12379;49.820;8.648;2022-11-20T16:53:34;7.10;99.90
24250;DHT22;12379;49.820;8.648;2022-11-20T16:56:14;7.10;99.90
24250;DHT22;12379;49.820;8.648;2022-11-20T16:58:46;7.10;99.90
24250;DHT22;12379;49.820;8.648;2022-11-20T17:01:16;7.10;99.90
24250;DHT22;12379;49.820;8.648;2022-11-20T17:03:43;7.20;99.90
24250;DHT22;12379;49.820;8.648;2022-11-20T17:06:18;7.30;99.90
24250;DHT22;12379;49.820;8.648;2022-11-20T17:08:44;7.20;99.90
24250;DHT22;12379;49.820;8.648;2022-11-20T17:11:12;7.20;99.90
24250;DHT22;12379;49.820;8.648;2022-11-20T17:13:38;7.20;99.90
24250;DHT22;12379;49.820;8.648;2022-11-20T17:16:08;7.20;99.90
24250;DHT22;12379;49.820;8.648;2022-11-20T17:18:34;7.20;99.90
24250;DHT22;12379;49.820;8.648;2022-11-20T17:21:00;7.10;99.90
24250;DHT22;12379;49.820;8.648;2022-11-20T17:23:33;7.20;99.90
24250;DHT22;12379;49.820;8.648;2022-11-20T17:26:01;7.20;99.90
24250;DHT22;12379;49.820;8.648;2022-11-20T17:28:27;7.20;99.90
24250;DHT22;12379;49.820;8.648;2022-11-20T17:30:53;7.10;99.90
24250;DHT22;12379;49.820;8.648;2022-11-20T17:33:18;7.10;99.90